Time;durP1;ratioP1;P1;durP2;ratioP2;P2;SDS_P1;SDS_P2;PMS_P1;PMS_P2;Temp;Humidity;BMP_temperature;BMP_pressure;BME280_temperature;BME280_humidity;BME280_pressure;Samples;Min_cycle;Max_cycle;Signal;HPM_P1;HPM_P2
2022/10/09 00:01:33;;;;;;;6.43;5.27;;;;;;;15.12;63.61;95027.78;5089309;28;20195;-82
2022/10/09 00:04:01;;;;;;;6.03;5.43;;;;;;;14.92;63.62;94991.16;5086414;28;20186;-83
2022/10/09 00:06:30;;;;;;;8.40;5.33;;;;;;;15.09;63.81;95020.34;5087475;28;20209;-83
2022/10/09 00:09:00;;;;;;;6.30;5.30;;;;;;;15.05;63.98;95017.28;5091229;28;20197;-82
2022/10/09 00:11:29;;;;;;;7.53;5.90;;;;;;;15.05;63.71;95019.84;5089294;28;20220;-83
2022/10/09 00:13:56;;;;;;;6.53;5.20;;;;;;;15.04;63.79;95017.44;5088030;28;20208;-82
2022/10/09 00:16:25;;;;;;;6.60;5.00;;;;;;;15.03;63.86;95021.00;5084011;28;20191;-80
2022/10/09 00:18:54;;;;;;;7.87;5.40;;;;;;;15.02;63.98;95017.59;5072253;28;20253;-83
2022/10/09 00:21:23;;;;;;;5.90;4.83;;;;;;;14.95;63.86;95000.34;5071704;28;20201;-83
2022/10/09 00:23:52;;;;;;;7.57;5.27;;;;;;;14.98;63.95;95008.59;5071201;28;20205;-83
2022/10/09 00:26:19;;;;;;;8.70;5.47;;;;;;;14.89;63.90;94991.47;5070975;28;20197;-85
2022/10/09 00:28:47;;;;;;;7.43;5.20;;;;;;;14.95;64.05;95003.72;5070310;28;20178;-83
2022/10/09 00:31:15;;;;;;;7.77;4.73;;;;;;;14.94;64.08;94996.97;5070721;28;20190;-82
2022/10/09 00:33:42;;;;;;;5.50;5.00;;;;;;;14.90;64.26;94992.31;5070306;28;20190;-83
2022/10/09 00:36:12;;;;;;;8.23;4.80;;;;;;;14.91;64.07;95006.78;5070512;28;20197;-82
2022/10/09 00:38:40;;;;;;;6.83;4.80;;;;;;;14.86;64.21;94991.81;5070156;28;20249;-84
2022/10/09 00:41:07;;;;;;;6.17;5.00;;;;;;;14.88;64.19;94996.78;5070287;28;20816;-82
2022/10/09 00:43:44;;;;;;;5.40;4.70;;;;;;;14.86;64.28;94994.38;5070073;28;20197;-82
2022/10/09 00:46:24;;;;;;;6.43;5.17;;;;;;;14.76;64.33;94968.75;5070569;28;20673;-82
2022/10/09 00:48:58;;;;;;;9.97;5.60;;;;;;;14.84;64.29;94985.19;5070332;28;20625;-83
2022/10/09 00:51:27;;;;;;;7.63;5.00;;;;;;;14.82;64.37;94987.94;5070370;28;20708;-82
2022/10/09 00:53:54;;;;;;;5.90;4.60;;;;;;;14.79;64.52;94988.22;5070193;28;20190;-83
2022/10/09 00:56:21;;;;;;;6.30;5.07;;;;;;;14.75;64.53;94974.84;5069935;28;20194;-82
2022/10/09 00:58:53;;;;;;;7.40;5.23;;;;;;;14.79;64.63;94975.34;5069824;28;20244;-83
2022/10/09 01:01:20;;;;;;;6.00;5.03;;;;;;;14.77;64.60;94975.53;5070318;28;20312;-82
2022/10/09 01:03:47;;;;;;;4.70;4.30;;;;;;;14.77;64.67;94972.16;5069727;28;20549;-83
2022/10/09 01:06:18;;;;;;;7.80;4.67;;;;;;;14.76;64.53;94973.09;5069920;28;20200;-83
2022/10/09 01:08:52;;;;;;;6.07;4.70;;;;;;;14.74;64.49;94978.41;5069963;28;20585;-82
2022/10/09 01:11:31;;;;;;;6.07;5.47;;;;;;;14.74;64.81;94975.03;5069802;28;20193;-83
2022/10/09 01:14:04;;;;;;;5.37;4.47;;;;;;;14.72;64.74;94980.34;5069514;28;20201;-82
2022/10/09 01:16:36;;;;;;;5.57;4.90;;;;;;;14.71;64.70;94973.56;5069800;28;20206;-82
2022/10/09 01:19:16;;;;;;;5.90;5.13;;;;;;;14.60;64.89;94963.56;5069760;28;20719;-81
2022/10/09 01:21:51;;;;;;;5.70;4.40;;;;;;;14.68;64.85;94978.19;5072980;28;20560;-82
2022/10/09 01:24:28;;;;;;;5.40;4.90;;;;;;;14.65;64.95;94979.34;5087502;28;20202;-84
2022/10/09 01:27:06;;;;;;;5.23;4.57;;;;;;;14.65;64.89;94981.09;5076894;28;20645;-82
2022/10/09 01:29:35;;;;;;;6.33;4.60;;;;;;;14.64;64.95;94974.34;5070365;28;20618;-82
2022/10/09 01:32:04;;;;;;;6.47;5.30;;;;;;;14.59;65.06;94976.56;5072959;28;20196;-83
2022/10/09 01:34:32;;;;;;;7.93;5.23;;;;;;;14.49;65.11;94956.09;5073743;28;20201;-82
2022/10/09 01:37:00;;;;;;;5.47;4.43;;;;;;;14.50;65.10;94962.84;5073590;28;20559;-83
2022/10/09 01:39:30;;;;;;;5.40;3.97;;;;;;;14.61;65.04;94982.38;5073641;28;20214;-83
2022/10/09 01:41:57;;;;;;;6.23;4.83;;;;;;;14.53;65.17;94968.50;5073753;28;20210;-83
2022/10/09 01:44:29;;;;;;;5.57;4.57;;;;;;;14.58;65.14;94977.53;5074134;28;20190;-84
2022/10/09 01:46:57;;;;;;;5.27;4.77;;;;;;;14.50;64.99;94962.84;5073464;28;20191;-83
2022/10/09 01:49:35;;;;;;;6.17;4.83;;;;;;;14.58;65.38;94980.91;5073763;28;20182;-83
2022/10/09 01:52:11;;;;;;;6.97;4.67;;;;;;;14.57;65.34;94978.50;5073184;28;20638;-83
2022/10/09 01:54:49;;;;;;;5.53;4.73;;;;;;;14.29;65.32;94940.91;5072972;28;20198;-84
2022/10/09 01:57:35;;;;;;;5.07;4.57;;;;;;;14.47;65.33;94969.09;5073045;28;20186;-84
2022/10/09 02:00:09;;;;;;;5.57;4.80;;;;;;;14.51;65.45;94985.88;5073203;28;20222;-83
2022/10/09 02:02:38;;;;;;;5.67;4.57;;;;;;;14.50;65.58;94984.25;5073024;28;20655;-83
2022/10/09 02:05:07;;;;;;;6.57;4.23;;;;;;;14.47;65.52;94984.56;5073498;28;20689;-83
2022/10/09 02:07:35;;;;;;;5.37;4.30;;;;;;;14.49;65.20;94990.38;5073522;28;20189;-82
2022/10/09 02:10:05;;;;;;;10.20;4.70;;;;;;;14.43;65.40;94982.44;5072977;28;20192;-83
2022/10/09 02:12:42;;;;;;;4.63;4.13;;;;;;;14.47;65.45;94994.84;5072387;28;20580;-82
2022/10/09 02:15:11;;;;;;;5.07;4.57;;;;;;;14.45;65.55;94994.16;5073022;28;20268;-82
2022/10/09 02:17:45;;;;;;;5.80;3.97;;;;;;;14.34;65.63;94975.66;5072796;28;20206;-82
2022/10/09 02:20:19;;;;;;;6.17;4.40;;;;;;;14.41;65.40;94992.88;5072971;28;20218;-82
2022/10/09 02:22:47;;;;;;;6.23;4.53;;;;;;;14.42;65.57;95001.38;5072126;28;20190;-82
2022/10/09 02:25:15;;;;;;;4.73;4.30;;;;;;;14.41;65.66;95004.94;5072577;28;20251;-82
2022/10/09 02:27:41;;;;;;;5.00;4.17;;;;;;;14.40;65.64;95003.31;5072308;28;20688;-82
2022/10/09 02:30:11;;;;;;;5.50;4.17;;;;;;;14.38;65.61;95006.06;5080518;28;20186;-82
2022/10/09 02:32:38;;;;;;;5.03;4.30;;;;;;;14.37;65.66;95012.13;5081543;28;20182;-82
2022/10/09 02:35:05;;;;;;;8.43;4.63;;;;;;;14.37;65.75;95004.41;5082935;28;20186;-83
2022/10/09 02:37:32;;;;;;;5.87;4.57;;;;;;;14.36;65.71;95002.81;5084308;28;20222;-82
2022/10/09 02:39:59;;;;;;;4.80;4.07;;;;;;;14.36;65.80;95005.38;5083791;28;20575;-82
2022/10/09 02:42:26;;;;;;;5.17;4.13;;;;;;;14.35;65.60;95006.34;5081205;28;20191;-82
2022/10/09 02:44:53;;;;;;;6.73;4.10;;;;;;;14.34;65.90;95002.19;5080256;28;20261;-80
2022/10/09 02:47:21;;;;;;;6.37;4.70;;;;;;;14.31;65.86;94999.91;5078403;28;20187;-83
2022/10/09 02:49:48;;;;;;;5.07;4.30;;;;;;;14.34;65.82;95006.53;5076015;28;20194;-81
2022/10/09 02:52:15;;;;;;;5.47;4.57;;;;;;;14.31;65.76;95003.28;5072166;28;20187;-81
2022/10/09 02:54:41;;;;;;;4.77;4.33;;;;;;;14.31;65.81;95000.69;5072489;28;20194;-82
2022/10/09 02:57:08;;;;;;;5.80;4.37;;;;;;;14.30;65.81;95006.00;5072309;28;20197;-84
2022/10/09 02:59:35;;;;;;;5.23;4.43;;;;;;;14.28;65.92;95008.72;5072070;28;20253;-82
2022/10/09 03:02:02;;;;;;;5.43;4.77;;;;;;;14.27;65.95;95007.09;5071958;28;20187;-82
2022/10/09 03:04:30;;;;;;;6.30;4.20;;;;;;;14.20;66.09;94993.22;5072527;28;20198;-82
2022/10/09 03:06:57;;;;;;;4.67;4.00;;;;;;;14.25;66.01;95011.63;5072332;28;20195;-82
2022/10/09 03:09:27;;;;;;;5.20;4.63;;;;;;;14.24;65.97;95007.41;5072273;28;20191;-82
2022/10/09 03:11:54;;;;;;;4.93;4.40;;;;;;;14.25;66.06;95008.25;5072602;28;20183;-82
2022/10/09 03:14:21;;;;;;;5.17;4.63;;;;;;;14.23;66.06;95012.72;5073097;28;20202;-83
2022/10/09 03:16:48;;;;;;;7.30;4.47;;;;;;;14.22;65.97;95016.25;5074536;28;20194;-82
2022/10/09 03:19:15;;;;;;;5.30;4.13;;;;;;;14.23;65.95;95017.84;5076165;28;20256;-83
2022/10/09 03:21:43;;;;;;;4.73;4.10;;;;;;;14.17;66.15;95013.34;5081366;28;20186;-82
2022/10/09 03:24:10;;;;;;;4.57;3.90;;;;;;;14.13;66.25;95014.59;5081478;28;20183;-81
2022/10/09 03:26:37;;;;;;;5.00;4.50;;;;;;;14.16;66.13;95015.09;5096783;28;20174;-83
2022/10/09 03:29:04;;;;;;;6.13;4.27;;;;;;;14.11;66.08;95014.72;5090826;28;20199;-82
2022/10/09 03:31:30;;;;;;;5.40;4.00;;;;;;;14.17;66.03;95021.84;5094312;28;20178;-82
2022/10/09 03:33:57;;;;;;;5.77;4.13;;;;;;;14.16;66.37;95022.00;5085651;28;20221;-82
2022/10/09 03:36:24;;;;;;;5.53;4.10;;;;;;;14.15;66.24;95021.19;5072623;28;20186;-83
2022/10/09 03:38:53;;;;;;;4.73;4.23;;;;;;;14.12;66.20;95023.25;5071652;28;20610;-82
2022/10/09 03:41:20;;;;;;;5.17;4.33;;;;;;;14.13;66.26;95028.25;5071558;28;20187;-82
2022/10/09 03:43:47;;;;;;;7.60;4.13;;;;;;;14.07;66.20;95023.69;5074251;28;20741;-82
2022/10/09 03:46:14;;;;;;;4.07;3.77;;;;;;;14.09;66.50;95032.09;5071615;28;20194;-82
2022/10/09 03:48:40;;;;;;;6.63;4.20;;;;;;;14.07;66.48;95028.84;5071582;28;20289;-82
2022/10/09 03:51:07;;;;;;;4.83;4.10;;;;;;;14.09;66.34;95032.09;5071709;28;20194;-82
2022/10/09 03:53:34;;;;;;;4.93;4.13;;;;;;;14.08;66.35;95022.75;5071442;28;20190;-83
2022/10/09 03:56:02;;;;;;;5.50;4.57;;;;;;;14.08;66.37;95029.69;5071112;28;20191;-83
2022/10/09 03:58:31;;;;;;;4.73;4.03;;;;;;;14.06;66.41;95028.03;5071110;28;20202;-83
2022/10/09 04:00:58;;;;;;;4.47;3.93;;;;;;;13.81;66.59;94996.19;5070994;28;20210;-83
2022/10/09 04:03:26;;;;;;;4.80;4.40;;;;;;;13.96;66.53;95016.25;5071246;28;20217;-83
2022/10/09 04:05:52;;;;;;;6.00;4.17;;;;;;;14.03;66.43;95030.09;5070361;28;20191;-83
2022/10/09 04:08:20;;;;;;;5.87;4.73;;;;;;;13.99;66.56;95021.91;5071021;28;20188;-83
2022/10/09 04:10:47;;;;;;;4.50;4.10;;;;;;;13.90;66.47;95015.06;5070468;28;20194;-83
2022/10/09 04:13:15;;;;;;;5.10;4.60;;;;;;;13.98;66.70;95027.97;5070346;28;20201;-82
2022/10/09 04:15:50;;;;;;;6.10;4.50;;;;;;;13.98;66.64;95032.31;5070779;28;20217;-82
2022/10/09 04:18:17;;;;;;;7.70;4.43;;;;;;;13.97;66.61;95035.84;5070376;28;20243;-83
2022/10/09 04:20:45;;;;;;;12.27;4.50;;;;;;;13.97;66.74;95031.50;5070696;28;20693;-82
2022/10/09 04:23:12;;;;;;;7.43;4.00;;;;;;;13.97;66.64;95030.72;5070192;28;20194;-83
2022/10/09 04:25:38;;;;;;;5.17;3.87;;;;;;;13.89;66.63;95025.50;5070428;28;20187;-82
2022/10/09 04:28:05;;;;;;;6.37;4.40;;;;;;;13.88;66.67;95023.91;5070291;28;20198;-81
2022/10/09 04:30:36;;;;;;;4.17;3.80;;;;;;;13.97;66.51;95043.56;5070514;28;20198;-82
2022/10/09 04:33:06;;;;;;;5.67;4.27;;;;;;;13.92;66.74;95035.50;5070358;28;20191;-84
2022/10/09 04:35:35;;;;;;;5.07;4.53;;;;;;;13.88;66.71;95029.84;5071065;28;20198;-82
2022/10/09 04:38:01;;;;;;;6.20;4.43;;;;;;;13.96;66.74;95047.09;5085138;28;20225;-81
2022/10/09 04:40:28;;;;;;;4.63;4.20;;;;;;;13.96;66.81;95047.91;5073956;28;20220;-82
2022/10/09 04:42:55;;;;;;;5.67;4.63;;;;;;;13.93;66.74;95040.47;5073292;28;20216;-83
2022/10/09 04:45:22;;;;;;;8.40;4.80;;;;;;;13.95;66.87;95045.50;5070884;28;20234;-83
2022/10/09 04:47:50;;;;;;;5.10;4.03;;;;;;;13.99;66.75;95054.53;5070115;28;20190;-83
2022/10/09 04:50:20;;;;;;;5.43;4.50;;;;;;;14.01;66.85;95050.03;5070495;28;20638;-83
2022/10/09 04:52:49;;;;;;;6.47;4.33;;;;;;;14.03;66.72;95051.50;5069869;28;20224;-83
2022/10/09 04:55:15;;;;;;;5.00;4.50;;;;;;;14.02;66.77;95049.06;5069960;28;20302;-83
2022/10/09 04:57:43;;;;;;;6.70;4.77;;;;;;;14.03;66.89;95051.50;5070062;28;20190;-85
2022/10/09 05:00:13;;;;;;;6.10;4.37;;;;;;;14.14;66.91;95057.34;5070662;28;20228;-84
2022/10/09 05:02:40;;;;;;;5.67;5.07;;;;;;;14.17;66.61;95059.63;5076443;28;20186;-82
2022/10/09 05:05:09;;;;;;;5.60;5.00;;;;;;;14.24;66.81;95065.78;5080715;28;20194;-82
2022/10/09 05:07:37;;;;;;;7.40;5.07;;;;;;;14.29;66.75;95063.53;5080921;28;20187;-85
2022/10/09 05:10:07;;;;;;;7.57;5.50;;;;;;;14.36;66.63;95068.91;5077725;28;20612;-84
2022/10/09 05:12:34;;;;;;;7.47;4.70;;;;;;;14.34;66.59;95048.50;5070401;28;20187;-84
2022/10/09 05:15:01;;;;;;;5.50;4.53;;;;;;;14.39;66.54;95043.69;5070018;28;20182;-84
2022/10/09 05:17:39;;;;;;;5.37;4.70;;;;;;;14.57;66.55;95066.81;5070524;28;20247;-84
2022/10/09 05:20:09;;;;;;;8.90;5.40;;;;;;;14.64;66.35;95070.41;5069159;28;20577;-82
2022/10/09 05:22:36;;;;;;;9.70;4.93;;;;;;;14.68;66.48;95060.56;5070147;28;20189;-84
2022/10/09 05:25:03;;;;;;;7.83;5.30;;;;;;;14.86;66.37;95078.56;5070160;28;20186;-86
2022/10/09 05:27:30;;;;;;;5.77;4.97;;;;;;;15.00;66.34;95077.94;5075405;28;20191;-83
2022/10/09 05:29:57;;;;;;;8.20;4.90;;;;;;;15.14;65.92;95073.97;5086493;28;20224;-84
2022/10/09 05:32:24;;;;;;;10.10;4.73;;;;;;;15.43;65.68;95081.31;5076458;28;20217;-84
2022/10/09 05:34:51;;;;;;;5.33;4.83;;;;;;;15.74;66.02;95079.78;5071503;28;20198;-85
2022/10/09 05:37:20;;;;;;;8.60;4.87;;;;;;;16.12;66.59;95076.72;5070157;28;20767;-84
2022/10/09 05:39:47;;;;;;;5.17;4.70;;;;;;;16.65;66.70;95077.94;5069880;28;20218;-83
2022/10/09 05:42:14;;;;;;;5.60;4.50;;;;;;;17.21;66.29;95089.06;5070097;28;20195;-85
2022/10/09 05:44:40;;;;;;;6.20;5.00;;;;;;;17.82;65.82;95092.63;5070928;28;20197;-84
2022/10/09 05:47:12;;;;;;;5.20;4.70;;;;;;;18.33;65.02;95063.59;5070874;28;20190;-84
2022/10/09 05:49:39;;;;;;;8.17;4.57;;;;;;;19.19;63.81;95091.53;5069864;28;20263;-83
2022/10/09 05:52:06;;;;;;;6.33;5.40;;;;;;;19.87;62.60;95091.31;5069723;28;20638;-84
2022/10/09 05:54:35;;;;;;;6.30;4.43;;;;;;;20.50;61.37;95087.84;5069897;28;20270;-84
2022/10/09 05:57:05;;;;;;;6.07;5.20;;;;;;;21.17;60.25;95081.25;5069550;28;20229;-84
2022/10/09 05:59:32;;;;;;;6.70;3.77;;;;;;;21.83;59.08;95088.47;5069815;28;20202;-84
2022/10/09 06:01:59;;;;;;;5.78;4.45;;;;;;;22.53;57.77;95104.59;5069393;28;20784;-84
2022/10/09 06:04:28;;;;;;;5.53;4.75;;;;;;;23.16;56.59;95104.91;5069820;28;20195;-84
2022/10/09 06:06:55;;;;;;;5.63;4.60;;;;;;;23.76;55.45;95109.91;5069428;28;20577;-84
2022/10/09 06:09:24;;;;;;;11.10;5.40;;;;;;;24.31;53.92;95115.41;5069574;28;20267;-84
2022/10/09 06:11:53;;;;;;;4.65;4.18;;;;;;;24.83;53.36;95123.84;5069027;28;20222;-82
2022/10/09 06:14:23;;;;;;;10.93;5.15;;;;;;;25.33;52.22;95121.13;5069547;28;20194;-84
2022/10/09 06:16:50;;;;;;;6.32;4.53;;;;;;;25.70;51.19;95102.78;5069550;28;20190;-83
2022/10/09 06:19:20;;;;;;;7.03;4.60;;;;;;;26.27;50.05;95124.97;5072541;28;20179;-84
2022/10/09 06:21:50;;;;;;;7.70;4.78;;;;;;;26.67;49.26;95128.81;5072629;28;20585;-84
2022/10/09 06:24:20;;;;;;;5.97;4.25;;;;;;;27.15;48.74;95138.31;5072557;28;20202;-82
2022/10/09 06:26:47;;;;;;;5.50;4.25;;;;;;;27.55;48.12;95137.56;5073081;28;20187;-85
2022/10/09 06:29:15;;;;;;;6.05;4.40;;;;;;;27.87;46.98;95130.84;5072771;28;20221;-83
2022/10/09 06:31:42;;;;;;;7.10;5.07;;;;;;;28.19;46.26;95130.34;5072222;28;20182;-84
2022/10/09 06:34:09;;;;;;;4.75;4.32;;;;;;;28.66;45.56;95149.31;5072635;28;20206;-83
2022/10/09 06:36:36;;;;;;;5.53;4.28;;;;;;;28.92;44.86;95134.69;5072636;28;20244;-83
2022/10/09 06:39:05;;;;;;;7.18;3.88;;;;;;;29.48;44.51;95155.78;5072969;28;20197;-83
2022/10/09 06:41:32;;;;;;;10.90;5.30;;;;;;;29.57;43.94;95116.63;5072799;28;20677;-83
2022/10/09 06:44:04;;;;;;;7.10;5.00;;;;;;;30.06;43.31;95158.84;5073524;28;20221;-84
2022/10/09 06:46:34;;;;;;;6.53;4.70;;;;;;;29.96;42.74;95119.94;5072629;28;20554;-84
2022/10/09 06:49:06;;;;;;;9.10;4.18;;;;;;;30.32;42.25;95159.91;5072631;28;20613;-83
2022/10/09 06:51:34;;;;;;;7.68;4.63;;;;;;;30.31;42.02;95148.56;5072578;28;20194;-84
2022/10/09 06:54:06;;;;;;;6.63;4.03;;;;;;;30.39;41.75;95131.47;5072941;28;20281;-83
2022/10/09 06:56:33;;;;;;;13.05;4.57;;;;;;;30.81;41.55;95160.63;5072293;28;20225;-84
2022/10/09 06:59:00;;;;;;;5.53;4.28;;;;;;;30.91;40.96;95139.53;5072775;28;20209;-83
2022/10/09 07:01:30;;;;;;;9.70;4.32;;;;;;;31.27;40.56;95149.56;5072515;28;20245;-83
2022/10/09 07:04:00;;;;;;;5.85;4.65;;;;;;;31.63;40.28;95153.97;5072534;28;20193;-84
2022/10/09 07:06:29;;;;;;;6.32;4.10;;;;;;;31.92;39.85;95145.63;5072896;28;20194;-84
2022/10/09 07:08:59;;;;;;;5.30;4.72;;;;;;;32.18;39.32;95144.63;5074752;28;20221;-84
2022/10/09 07:11:31;;;;;;;4.72;4.22;;;;;;;32.49;39.13;95154.50;5075419;28;20186;-84
2022/10/09 07:14:00;;;;;;;5.53;4.63;;;;;;;32.60;38.43;95148.13;5076143;28;20222;-84
2022/10/09 07:16:28;;;;;;;5.03;4.53;;;;;;;32.95;38.42;95157.97;5081549;28;20186;-83
2022/10/09 07:19:07;;;;;;;5.38;4.43;;;;;;;33.07;37.98;95147.06;5089845;28;20194;-85
2022/10/09 07:21:34;;;;;;;12.32;4.90;;;;;;;33.30;37.75;95146.47;5090082;28;20236;-83
2022/10/09 07:24:10;;;;;;;4.53;4.10;;;;;;;33.63;37.31;95165.47;5084598;28;20244;-82
2022/10/09 07:26:47;;;;;;;8.38;4.47;;;;;;;33.83;37.19;95169.94;5084088;28;20201;-82
2022/10/09 07:29:16;;;;;;;5.20;3.90;;;;;;;33.95;36.80;95173.06;5084252;28;20202;-82
2022/10/09 07:31:43;;;;;;;6.10;4.10;;;;;;;34.12;36.66;95178.84;5091988;28;20187;-82
2022/10/09 07:34:11;;;;;;;8.23;5.05;;;;;;;34.24;36.36;95172.38;5082611;28;20259;-83
2022/10/09 07:36:42;;;;;;;7.78;4.90;;;;;;;34.40;36.18;95184.50;5073122;28;20190;-83
2022/10/09 07:39:11;;;;;;;5.82;4.95;;;;;;;34.34;35.91;95153.75;5074943;28;20186;-82
2022/10/09 07:41:41;;;;;;;5.97;4.88;;;;;;;34.33;35.60;95138.88;5072366;28;20222;-83
2022/10/09 07:44:09;;;;;;;5.82;4.80;;;;;;;34.64;35.54;95172.13;5070739;28;20186;-84
2022/10/09 07:46:37;;;;;;;8.25;5.10;;;;;;;34.75;35.73;95180.81;5071507;28;20190;-82
2022/10/09 07:49:05;;;;;;;8.00;5.40;;;;;;;34.79;35.26;95187.16;5072670;28;20199;-83
2022/10/09 07:51:36;;;;;;;6.28;4.85;;;;;;;34.80;35.21;95183.41;5071384;28;20625;-83
2022/10/09 07:54:03;;;;;;;5.95;5.30;;;;;;;34.82;34.97;95183.16;5073292;28;20198;-83
2022/10/09 07:56:32;;;;;;;9.60;5.72;;;;;;;34.81;35.14;95179.72;5071299;28;20182;-83
2022/10/09 07:59:01;;;;;;;8.85;5.43;;;;;;;34.75;34.81;95172.84;5071068;28;20799;-83
2022/10/09 08:01:28;;;;;;;7.78;5.75;;;;;;;34.80;35.02;95188.75;5071600;28;20241;-85
2022/10/09 08:03:58;;;;;;;11.55;6.28;;;;;;;34.72;34.80;95173.41;5071147;28;20569;-83
2022/10/09 08:06:25;;;;;;;6.43;5.53;;;;;;;34.72;34.83;95175.25;5071159;28;20193;-83
2022/10/09 08:09:01;;;;;;;6.07;5.47;;;;;;;34.62;34.83;95165.50;5071165;28;20644;-83
2022/10/09 08:11:29;;;;;;;7.75;5.40;;;;;;;34.59;34.92;95169.53;5070842;28;20194;-83
2022/10/09 08:13:56;;;;;;;6.47;5.03;;;;;;;34.53;35.00;95164.50;5070986;28;20190;-83
2022/10/09 08:16:25;;;;;;;7.88;6.28;;;;;;;34.18;35.03;95119.31;5070446;28;20190;-82
2022/10/09 08:19:01;;;;;;;5.90;5.07;;;;;;;34.33;34.96;95150.28;5071648;28;20194;-83
2022/10/09 08:21:28;;;;;;;9.90;6.32;;;;;;;34.24;35.10;95146.63;5071228;28;20209;-82
2022/10/09 08:24:01;;;;;;;5.82;5.22;;;;;;;34.03;35.53;95150.50;5070956;28;20194;-83
2022/10/09 08:26:37;;;;;;;6.72;5.28;;;;;;;33.75;35.88;95157.22;5071147;28;20198;-83
2022/10/09 08:29:09;;;;;;;5.97;5.10;;;;;;;33.51;36.46;95152.56;5070428;28;20224;-84
2022/10/09 08:31:36;;;;;;;12.00;5.10;;;;;;;33.28;36.47;95151.25;5070559;28;20724;-83
2022/10/09 08:34:06;;;;;;;7.25;4.28;;;;;;;32.94;36.61;95128.00;5069725;28;20738;-83
2022/10/09 08:36:33;;;;;;;8.30;5.05;;;;;;;32.81;36.63;95122.41;5070532;28;20308;-83
2022/10/09 08:39:01;;;;;;;4.85;4.35;;;;;;;32.78;36.65;95126.41;5070720;28;20198;-84
2022/10/09 08:41:42;;;;;;;7.07;5.03;;;;;;;32.85;36.52;95150.75;5072128;28;20596;-83
2022/10/09 08:44:19;;;;;;;6.05;4.18;;;;;;;32.79;36.35;95143.09;5070612;28;20273;-84
2022/10/09 08:46:54;;;;;;;7.53;4.70;;;;;;;32.81;36.52;95152.34;5071512;28;20194;-84
2022/10/09 08:49:28;;;;;;;10.93;4.53;;;;;;;32.72;36.69;95146.78;5070459;28;20194;-83
2022/10/09 08:52:02;;;;;;;5.43;3.90;;;;;;;32.71;36.69;95152.38;5073708;28;20182;-84
2022/10/09 08:54:43;;;;;;;5.50;3.92;;;;;;;32.65;36.53;95142.84;5072143;28;20707;-83
2022/10/09 08:57:14;;;;;;;5.63;3.75;;;;;;;32.45;36.92;95123.22;5070544;28;20190;-83
2022/10/09 08:59:42;;;;;;;8.18;3.90;;;;;;;32.39;36.98;95128.81;5070926;28;20194;-84
2022/10/09 09:02:29;;;;;;;6.00;4.03;;;;;;;32.28;36.96;95130.59;5070142;28;20664;-83
2022/10/09 09:05:09;;;;;;;5.03;3.88;;;;;;;32.09;37.16;95130.31;5070605;28;20197;-84
2022/10/09 09:07:42;;;;;;;7.03;4.22;;;;;;;31.78;37.17;95115.38;5070511;28;20620;-83
2022/10/09 09:10:19;;;;;;;6.18;3.83;;;;;;;31.60;37.10;95120.09;5071017;28;20194;-83
2022/10/09 09:12:50;;;;;;;4.18;3.85;;;;;;;31.35;37.30;95110.25;5070616;28;20198;-83
2022/10/09 09:15:38;;;;;;;5.75;4.15;;;;;;;31.25;37.35;95128.66;5070916;28;20620;-82
2022/10/09 09:18:25;;;;;;;5.07;3.78;;;;;;;30.91;37.76;95107.84;5070053;28;20281;-83
2022/10/09 09:20:56;;;;;;;4.03;3.63;;;;;;;30.75;38.00;95113.31;5069785;28;20222;-82
2022/10/09 09:23:32;;;;;;;4.40;3.65;;;;;;;30.63;37.85;95119.53;5069891;28;20365;-84
2022/10/09 09:26:09;;;;;;;4.53;3.33;;;;;;;30.27;38.14;95088.59;5069774;28;20591;-84
2022/10/09 09:29:02;;;;;;;3.58;3.28;;;;;;;30.30;37.97;95128.47;5069872;28;20186;-82
2022/10/09 09:31:36;;;;;;;4.00;3.35;;;;;;;30.14;38.19;95130.22;5087304;28;20276;-83
2022/10/09 09:34:10;;;;;;;3.90;3.20;;;;;;;30.02;38.45;95126.09;5081387;28;20549;-83
2022/10/09 09:36:42;;;;;;;5.28;3.80;;;;;;;29.83;38.45;95121.13;5077307;28;20597;-82
2022/10/09 09:39:14;;;;;;;4.47;4.00;;;;;;;29.55;38.70;95094.97;5073510;28;20270;-85
2022/10/09 09:41:56;;;;;;;5.00;3.53;;;;;;;29.49;38.83;95121.28;5070565;28;20614;-84
2022/10/09 09:44:25;;;;;;;8.02;2.80;;;;;;;29.36;39.17;95123.47;5070522;28;20205;-83
2022/10/09 09:46:55;;;;;;;3.97;3.45;;;;;;;29.30;38.88;95124.44;5070212;28;20206;-83
2022/10/09 09:49:26;;;;;;;6.53;3.38;;;;;;;29.13;38.98;95120.00;5070134;28;20585;-83
2022/10/09 09:52:04;;;;;;;3.88;3.47;;;;;;;29.06;39.26;95124.69;5071067;28;20186;-82
2022/10/09 09:54:34;;;;;;;5.40;3.80;;;;;;;28.89;39.26;95127.31;5075093;28;20190;-83
2022/10/09 10:00:30;;;;;;;5.47;3.42;;;;;;;28.65;39.86;95129.31;5075815;28;20193;-83
2022/10/09 10:03:13;;;;;;;3.35;3.05;;;;;;;28.53;39.63;95135.69;5074456;28;20580;-84
2022/10/09 10:05:50;;;;;;;5.30;3.13;;;;;;;28.40;39.81;95129.69;5073063;28;20187;-84
2022/10/09 10:08:27;;;;;;;4.78;3.17;;;;;;;28.31;40.32;95125.03;5073481;28;20200;-82
2022/10/09 10:11:02;;;;;;;7.75;3.53;;;;;;;28.11;40.17;95112.34;5073005;28;20190;-84
2022/10/09 10:13:37;;;;;;;3.58;3.28;;;;;;;28.10;40.10;95124.69;5073314;28;20193;-84
2022/10/09 10:16:08;;;;;;;4.30;3.70;;;;;;;27.74;40.17;95089.09;5073004;28;20198;-84
2022/10/09 10:18:39;;;;;;;3.90;3.13;;;;;;;27.71;40.33;95092.13;5073036;28;20190;-84
2022/10/09 10:21:10;;;;;;;3.60;3.30;;;;;;;27.80;40.67;95121.50;5072910;28;20182;-84
2022/10/09 10:23:42;;;;;;;5.35;3.92;;;;;;;27.49;40.39;95086.75;5072888;28;20293;-84
2022/10/09 10:26:24;;;;;;;6.05;3.20;;;;;;;27.67;40.88;95125.19;5072614;28;20537;-84
2022/10/09 10:28:57;;;;;;;5.05;3.63;;;;;;;27.58;41.02;95113.44;5072930;28;20190;-83
2022/10/09 10:31:40;;;;;;;5.85;3.20;;;;;;;27.51;40.90;95126.72;5072704;28;20198;-84
2022/10/09 10:34:15;;;;;;;4.38;3.20;;;;;;;27.45;41.10;95122.38;5072976;28;20194;-84
2022/10/09 10:36:42;;;;;;;4.57;3.60;;;;;;;27.36;41.16;95111.44;5074008;28;20205;-83
2022/10/09 10:39:21;;;;;;;3.58;3.20;;;;;;;27.32;40.96;95112.13;5073563;28;20202;-85
2022/10/09 10:41:52;;;;;;;4.85;3.50;;;;;;;27.26;41.42;95113.88;5077501;28;20244;-83
2022/10/09 10:44:26;;;;;;;3.28;2.83;;;;;;;27.09;41.45;95087.53;5073162;28;20198;-84
2022/10/09 10:47:02;;;;;;;3.60;3.15;;;;;;;27.04;41.12;95092.66;5073374;28;20210;-83
2022/10/09 10:49:29;;;;;;;3.75;3.45;;;;;;;27.07;41.33;95091.38;5073018;28;20201;-84
2022/10/09 10:52:24;;;;;;;4.20;3.28;;;;;;;26.89;41.33;95081.81;5082970;28;20611;-83
2022/10/09 10:55:00;;;;;;;8.40;3.45;;;;;;;26.96;41.51;95090.38;5088593;28;20190;-83
2022/10/09 10:57:44;;;;;;;3.30;3.10;;;;;;;26.90;41.67;95089.47;5088351;28;20190;-82
2022/10/09 11:00:12;;;;;;;3.95;3.50;;;;;;;26.83;42.00;95077.50;5080594;28;20190;-85
2022/10/09 11:03:26;;;;;;;8.70;3.47;;;;;;;26.80;41.56;95083.97;5080061;28;20226;-83
2022/10/09 11:09:16;;;;;;;4.20;3.28;;;;;;;26.52;41.85;95055.81;5034766;28;20292;-85
2022/10/09 11:11:52;;;;;;;5.88;3.25;;;;;;;26.23;41.85;95013.69;5072925;28;20694;-83
2022/10/09 11:14:32;;;;;;;5.78;3.35;;;;;;;26.58;41.82;95070.63;5071574;28;20193;-83
2022/10/09 11:17:10;;;;;;;3.63;3.33;;;;;;;26.42;42.24;95051.09;5072391;28;20194;-85
2022/10/09 11:19:57;;;;;;;4.45;2.90;;;;;;;26.51;42.14;95069.94;5071690;28;20198;-83
2022/10/09 11:22:43;;;;;;;4.60;3.65;;;;;;;26.47;42.10;95069.63;5071837;28;20206;-83
2022/10/09 11:25:30;;;;;;;3.85;3.30;;;;;;;26.39;42.29;95062.06;5072154;28;20194;-82
2022/10/09 11:28:06;;;;;;;3.00;2.80;;;;;;;26.40;42.16;95053.16;5072469;28;20360;-82
2022/10/09 11:30:38;;;;;;;3.22;2.90;;;;;;;26.33;42.10;95052.44;5079960;28;20204;-83
2022/10/09 11:36:04;;;;;;;3.40;3.00;;;;;;;26.29;42.42;95051.31;5075603;28;20263;-84
2022/10/09 11:38:37;;;;;;;4.13;3.00;;;;;;;26.22;42.53;95048.81;5073559;28;20257;-82
2022/10/09 11:41:06;;;;;;;3.85;3.42;;;;;;;26.13;42.27;95041.50;5072909;28;20186;-83
2022/10/09 11:43:48;;;;;;;3.33;3.03;;;;;;;26.18;42.43;95052.13;5072102;28;20222;-82
2022/10/09 11:46:27;;;;;;;4.78;2.70;;;;;;;26.14;42.83;95043.91;5072412;28;20190;-83
2022/10/09 11:49:01;;;;;;;4.85;3.47;;;;;;;25.85;42.48;95006.22;5073790;28;20182;-83
2022/10/09 11:51:34;;;;;;;4.30;3.15;;;;;;;26.03;42.37;95040.22;5079698;28;20198;-83
2022/10/09 11:54:05;;;;;;;3.50;3.20;;;;;;;26.03;42.67;95037.59;5087673;28;20212;-82
2022/10/09 11:56:33;;;;;;;4.85;3.33;;;;;;;25.95;42.70;95026.63;5090618;28;20194;-83
2022/10/09 11:59:02;;;;;;;3.40;3.10;;;;;;;25.73;42.66;95006.19;5089709;28;20190;-82
2022/10/09 12:01:33;;;;;;;4.65;3.30;;;;;;;25.90;42.63;95032.56;5092038;28;20174;-84